sensor_id;sensor_type;location;lat;lon;timestamp;pressure;altitude;pressure_sealevel;temperature;humidity
28701;BME280;15877;52.344;16.790;2022-07-06T00:02:14;100939.52;;;21.29;55.55
28701;BME280;15877;52.344;16.790;2022-07-06T00:04:47;100911.32;;;21.12;56.06
28701;BME280;15877;52.344;16.790;2022-07-06T00:07:19;100939.02;;;21.31;55.99
28701;BME280;15877;52.344;16.790;2022-07-06T00:09:53;100933.63;;;21.34;55.75
28701;BME280;15877;52.344;16.790;2022-07-06T00:12:26;100924.92;;;21.33;55.98
28701;BME280;15877;52.344;16.790;2022-07-06T00:14:58;100918.63;;;21.33;56.11
28701;BME280;15877;52.344;16.790;2022-07-06T00:17:31;100913.21;;;21.32;56.17
28701;BME280;15877;52.344;16.790;2022-07-06T00:20:04;100912.98;;;21.33;55.86
28701;BME280;15877;52.344;16.790;2022-07-06T00:22:37;100913.03;;;21.34;55.87
28701;BME280;15877;52.344;16.790;2022-07-06T00:25:11;100918.95;;;21.33;55.87
28701;BME280;15877;52.344;16.790;2022-07-06T00:27:43;100918.48;;;21.31;56.07
28701;BME280;15877;52.344;16.790;2022-07-06T00:30:16;100922.86;;;21.31;56.03
28701;BME280;15877;52.344;16.790;2022-07-06T00:32:48;100922.73;;;21.29;55.70
28701;BME280;15877;52.344;16.790;2022-07-06T00:35:21;100922.28;;;21.26;56.26
28701;BME280;15877;52.344;16.790;2022-07-06T00:37:54;100925.15;;;21.22;56.07
28701;BME280;15877;52.344;16.790;2022-07-06T00:40:27;100922.36;;;21.19;56.22
28701;BME280;15877;52.344;16.790;2022-07-06T00:43:02;100925.50;;;21.15;56.42
28701;BME280;15877;52.344;16.790;2022-07-06T00:45:34;100924.36;;;21.10;56.74
28701;BME280;15877;52.344;16.790;2022-07-06T00:48:07;100923.66;;;21.07;56.60
28701;BME280;15877;52.344;16.790;2022-07-06T00:50:40;100925.08;;;21.04;56.77
28701;BME280;15877;52.344;16.790;2022-07-06T00:53:14;100923.00;;;21.03;56.54
28701;BME280;15877;52.344;16.790;2022-07-06T00:55:46;100927.48;;;20.99;56.72
28701;BME280;15877;52.344;16.790;2022-07-06T00:58:18;100923.36;;;20.97;56.66
28701;BME280;15877;52.344;16.790;2022-07-06T01:00:52;100923.06;;;20.95;56.72
28701;BME280;15877;52.344;16.790;2022-07-06T01:03:25;100923.52;;;20.91;56.75
28701;BME280;15877;52.344;16.790;2022-07-06T01:05:59;100929.45;;;20.88;57.09
28701;BME280;15877;52.344;16.790;2022-07-06T01:08:31;100931.59;;;20.83;57.36
28701;BME280;15877;52.344;16.790;2022-07-06T01:11:08;100925.27;;;20.80;57.25
28701;BME280;15877;52.344;16.790;2022-07-06T01:13:41;100921.89;;;20.79;57.20
28701;BME280;15877;52.344;16.790;2022-07-06T01:16:13;100923.02;;;20.78;57.29
28701;BME280;15877;52.344;16.790;2022-07-06T01:18:46;100927.18;;;20.76;57.12
28701;BME280;15877;52.344;16.790;2022-07-06T01:21:18;100930.20;;;20.71;57.09
28701;BME280;15877;52.344;16.790;2022-07-06T01:23:51;100925.35;;;20.66;56.91
28701;BME280;15877;52.344;16.790;2022-07-06T01:26:23;100925.47;;;20.63;56.69
28701;BME280;15877;52.344;16.790;2022-07-06T01:28:58;100922.58;;;20.61;57.08
28701;BME280;15877;52.344;16.790;2022-07-06T01:31:31;100922.70;;;20.58;57.37
28701;BME280;15877;52.344;16.790;2022-07-06T01:34:03;100928.21;;;20.55;57.51
28701;BME280;15877;52.344;16.790;2022-07-06T01:36:41;100921.39;;;20.51;57.79
28701;BME280;15877;52.344;16.790;2022-07-06T01:39:14;100921.30;;;20.46;58.08
28701;BME280;15877;52.344;16.790;2022-07-06T01:41:46;100922.68;;;20.44;58.13
28701;BME280;15877;52.344;16.790;2022-07-06T01:44:20;100920.20;;;20.44;58.12
28701;BME280;15877;52.344;16.790;2022-07-06T01:46:52;100916.61;;;20.39;58.23
28701;BME280;15877;52.344;16.790;2022-07-06T01:49:24;100918.46;;;20.38;58.36
28701;BME280;15877;52.344;16.790;2022-07-06T01:51:56;100918.96;;;20.37;58.34
28701;BME280;15877;52.344;16.790;2022-07-06T01:54:29;100918.58;;;20.35;58.51
28701;BME280;15877;52.344;16.790;2022-07-06T01:57:02;100923.48;;;20.29;58.63
28701;BME280;15877;52.344;16.790;2022-07-06T01:59:35;100922.77;;;20.28;58.70
28701;BME280;15877;52.344;16.790;2022-07-06T02:02:07;100919.73;;;20.24;58.66
28701;BME280;15877;52.344;16.790;2022-07-06T02:04:40;100923.56;;;20.21;58.83
28701;BME280;15877;52.344;16.790;2022-07-06T02:07:12;100922.21;;;20.20;58.78
28701;BME280;15877;52.344;16.790;2022-07-06T02:09:44;100921.02;;;20.19;58.83
28701;BME280;15877;52.344;16.790;2022-07-06T02:12:17;100922.92;;;20.19;58.97
28701;BME280;15877;52.344;16.790;2022-07-06T02:14:49;100925.43;;;20.19;59.02
28701;BME280;15877;52.344;16.790;2022-07-06T02:17:23;100921.65;;;20.15;59.21
28701;BME280;15877;52.344;16.790;2022-07-06T02:19:55;100926.19;;;20.13;59.31
28701;BME280;15877;52.344;16.790;2022-07-06T02:22:27;100927.19;;;20.10;59.37
28701;BME280;15877;52.344;16.790;2022-07-06T02:25:00;100930.09;;;20.08;59.20
28701;BME280;15877;52.344;16.790;2022-07-06T02:27:32;100935.27;;;20.08;58.97
28701;BME280;15877;52.344;16.790;2022-07-06T02:30:08;100933.73;;;20.06;59.15
28701;BME280;15877;52.344;16.790;2022-07-06T02:32:40;100939.70;;;20.06;59.09
28701;BME280;15877;52.344;16.790;2022-07-06T02:35:13;100939.65;;;20.03;59.25
28701;BME280;15877;52.344;16.790;2022-07-06T02:37:45;100943.35;;;20.05;59.32
28701;BME280;15877;52.344;16.790;2022-07-06T02:40:19;100946.65;;;20.05;59.75
28701;BME280;15877;52.344;16.790;2022-07-06T02:42:51;100951.71;;;20.06;59.74
28701;BME280;15877;52.344;16.790;2022-07-06T02:45:23;100946.73;;;20.05;59.77
28701;BME280;15877;52.344;16.790;2022-07-06T02:47:56;100954.13;;;20.08;59.60
28701;BME280;15877;52.344;16.790;2022-07-06T02:50:28;100957.27;;;20.08;59.89
28701;BME280;15877;52.344;16.790;2022-07-06T02:53:00;100954.84;;;20.09;60.30
28701;BME280;15877;52.344;16.790;2022-07-06T02:55:33;100956.92;;;20.10;60.62
28701;BME280;15877;52.344;16.790;2022-07-06T02:58:06;100960.40;;;20.09;60.82
28701;BME280;15877;52.344;16.790;2022-07-06T03:00:38;100962.71;;;20.11;60.84
28701;BME280;15877;52.344;16.790;2022-07-06T03:03:11;100963.17;;;20.13;60.73
28701;BME280;15877;52.344;16.790;2022-07-06T03:05:44;100963.91;;;20.16;60.96
28701;BME280;15877;52.344;16.790;2022-07-06T03:08:18;100965.27;;;20.18;61.19
28701;BME280;15877;52.344;16.790;2022-07-06T03:10:52;100963.00;;;20.20;61.54
28701;BME280;15877;52.344;16.790;2022-07-06T03:13:24;100961.09;;;20.25;61.38
28701;BME280;15877;52.344;16.790;2022-07-06T03:15:57;100962.36;;;20.27;61.45
28701;BME280;15877;52.344;16.790;2022-07-06T03:18:29;100963.89;;;20.28;61.11
28701;BME280;15877;52.344;16.790;2022-07-06T03:21:02;100958.68;;;20.32;61.35
28701;BME280;15877;52.344;16.790;2022-07-06T03:23:35;100957.63;;;20.34;61.13
28701;BME280;15877;52.344;16.790;2022-07-06T03:26:08;100957.77;;;20.35;61.40
28701;BME280;15877;52.344;16.790;2022-07-06T03:28:40;100954.77;;;20.36;61.41
28701;BME280;15877;52.344;16.790;2022-07-06T03:31:12;100942.73;;;20.31;61.46
28701;BME280;15877;52.344;16.790;2022-07-06T03:33:45;100955.39;;;20.39;61.52
28701;BME280;15877;52.344;16.790;2022-07-06T03:36:18;100953.95;;;20.39;61.47
28701;BME280;15877;52.344;16.790;2022-07-06T03:38:51;100953.29;;;20.40;61.64
28701;BME280;15877;52.344;16.790;2022-07-06T03:41:26;100952.63;;;20.41;61.94
28701;BME280;15877;52.344;16.790;2022-07-06T03:44:02;100936.81;;;20.35;61.82
28701;BME280;15877;52.344;16.790;2022-07-06T03:46:35;100946.63;;;20.45;61.65
28701;BME280;15877;52.344;16.790;2022-07-06T03:49:07;100946.84;;;20.47;62.08
28701;BME280;15877;52.344;16.790;2022-07-06T03:51:39;100950.35;;;20.51;61.90
28701;BME280;15877;52.344;16.790;2022-07-06T03:54:12;100950.50;;;20.53;61.92
28701;BME280;15877;52.344;16.790;2022-07-06T03:56:44;100939.05;;;20.46;61.50
28701;BME280;15877;52.344;16.790;2022-07-06T03:59:17;100954.09;;;20.49;61.39
28701;BME280;15877;52.344;16.790;2022-07-06T04:01:49;100959.38;;;20.51;61.56
28701;BME280;15877;52.344;16.790;2022-07-06T04:04:24;100959.05;;;20.51;61.45
28701;BME280;15877;52.344;16.790;2022-07-06T04:06:56;100958.64;;;20.54;61.11
28701;BME280;15877;52.344;16.790;2022-07-06T04:09:30;100958.45;;;20.55;61.21
28701;BME280;15877;52.344;16.790;2022-07-06T04:12:03;100956.26;;;20.57;61.57
28701;BME280;15877;52.344;16.790;2022-07-06T04:14:35;100952.67;;;20.61;61.34
28701;BME280;15877;52.344;16.790;2022-07-06T04:17:07;100956.35;;;20.63;61.50
28701;BME280;15877;52.344;16.790;2022-07-06T04:19:55;100958.27;;;20.66;61.49
28701;BME280;15877;52.344;16.790;2022-07-06T04:22:27;100956.77;;;20.69;61.13
28701;BME280;15877;52.344;16.790;2022-07-06T04:24:59;100949.48;;;20.65;61.22
28701;BME280;15877;52.344;16.790;2022-07-06T04:27:32;100958.98;;;20.67;61.63
28701;BME280;15877;52.344;16.790;2022-07-06T04:30:06;100954.52;;;20.68;61.86
28701;BME280;15877;52.344;16.790;2022-07-06T04:32:38;100958.84;;;20.70;61.79
28701;BME280;15877;52.344;16.790;2022-07-06T04:35:11;100951.48;;;20.73;61.86
28701;BME280;15877;52.344;16.790;2022-07-06T04:37:44;100954.38;;;20.67;62.12
28701;BME280;15877;52.344;16.790;2022-07-06T04:40:19;100949.81;;;20.71;62.23
28701;BME280;15877;52.344;16.790;2022-07-06T04:42:53;100948.38;;;20.76;62.03
28701;BME280;15877;52.344;16.790;2022-07-06T04:45:26;100943.64;;;20.82;62.20
28701;BME280;15877;52.344;16.790;2022-07-06T04:47:59;100939.11;;;20.88;61.97
28701;BME280;15877;52.344;16.790;2022-07-06T04:50:31;100937.59;;;20.95;62.46
28701;BME280;15877;52.344;16.790;2022-07-06T04:53:10;100934.44;;;20.97;62.51
28701;BME280;15877;52.344;16.790;2022-07-06T04:55:43;100926.69;;;20.97;62.48
28701;BME280;15877;52.344;16.790;2022-07-06T04:58:15;100934.25;;;21.07;62.77
28701;BME280;15877;52.344;16.790;2022-07-06T05:00:49;100940.87;;;21.13;62.71
28701;BME280;15877;52.344;16.790;2022-07-06T05:03:21;100938.90;;;21.15;62.60
28701;BME280;15877;52.344;16.790;2022-07-06T05:05:54;100943.42;;;21.19;62.86
28701;BME280;15877;52.344;16.790;2022-07-06T05:08:28;100943.33;;;21.21;62.58
28701;BME280;15877;52.344;16.790;2022-07-06T05:11:01;100932.91;;;21.15;62.65
28701;BME280;15877;52.344;16.790;2022-07-06T05:13:33;100946.05;;;21.29;62.81
28701;BME280;15877;52.344;16.790;2022-07-06T05:16:06;100943.97;;;21.33;62.49
28701;BME280;15877;52.344;16.790;2022-07-06T05:18:39;100939.41;;;21.36;62.82
28701;BME280;15877;52.344;16.790;2022-07-06T05:21:11;100936.27;;;21.37;63.42
28701;BME280;15877;52.344;16.790;2022-07-06T05:23:43;100930.20;;;21.42;63.41
28701;BME280;15877;52.344;16.790;2022-07-06T05:26:16;100929.44;;;21.45;63.44
28701;BME280;15877;52.344;16.790;2022-07-06T05:28:49;100911.06;;;21.42;63.75
28701;BME280;15877;52.344;16.790;2022-07-06T05:31:23;100926.71;;;21.55;63.39
28701;BME280;15877;52.344;16.790;2022-07-06T05:33:55;100927.20;;;21.59;62.43
28701;BME280;15877;52.344;16.790;2022-07-06T05:36:28;100927.85;;;21.69;62.34
28701;BME280;15877;52.344;16.790;2022-07-06T05:39:01;100926.23;;;21.76;62.90
28701;BME280;15877;52.344;16.790;2022-07-06T05:41:34;100927.95;;;21.85;62.14
28701;BME280;15877;52.344;16.790;2022-07-06T05:44:06;100933.34;;;21.97;61.48
28701;BME280;15877;52.344;16.790;2022-07-06T05:46:38;100931.56;;;22.07;61.23
28701;BME280;15877;52.344;16.790;2022-07-06T05:49:11;100936.92;;;22.19;61.31
28701;BME280;15877;52.344;16.790;2022-07-06T05:52:01;100939.21;;;22.27;61.84
28701;BME280;15877;52.344;16.790;2022-07-06T05:54:33;100940.91;;;22.36;60.30
28701;BME280;15877;52.344;16.790;2022-07-06T05:57:06;100945.01;;;22.50;59.66
28701;BME280;15877;52.344;16.790;2022-07-06T05:59:38;100943.03;;;22.58;59.50
28701;BME280;15877;52.344;16.790;2022-07-06T06:02:10;100947.23;;;22.71;60.00
28701;BME280;15877;52.344;16.790;2022-07-06T06:04:43;100947.70;;;22.80;57.92
28701;BME280;15877;52.344;16.790;2022-07-06T06:07:16;100943.81;;;22.92;57.75
28701;BME280;15877;52.344;16.790;2022-07-06T06:09:48;100920.74;;;22.92;58.39
28701;BME280;15877;52.344;16.790;2022-07-06T06:12:21;100920.39;;;23.05;57.03
28701;BME280;15877;52.344;16.790;2022-07-06T06:14:53;100932.06;;;23.19;57.30
28701;BME280;15877;52.344;16.790;2022-07-06T06:17:26;100911.09;;;23.17;57.85
28701;BME280;15877;52.344;16.790;2022-07-06T06:19:59;100932.46;;;23.39;56.35
28701;BME280;15877;52.344;16.790;2022-07-06T06:22:31;100927.38;;;23.45;55.44
28701;BME280;15877;52.344;16.790;2022-07-06T06:25:04;100926.39;;;23.35;55.23
28701;BME280;15877;52.344;16.790;2022-07-06T06:27:36;100931.45;;;23.40;55.59
28701;BME280;15877;52.344;16.790;2022-07-06T06:30:10;100934.07;;;23.43;54.70
28701;BME280;15877;52.344;16.790;2022-07-06T06:32:42;100928.25;;;23.46;55.24
28701;BME280;15877;52.344;16.790;2022-07-06T06:35:14;100928.71;;;23.47;54.87
28701;BME280;15877;52.344;16.790;2022-07-06T06:37:47;100928.88;;;23.47;54.80
28701;BME280;15877;52.344;16.790;2022-07-06T06:40:19;100934.38;;;23.41;55.11
28701;BME280;15877;52.344;16.790;2022-07-06T06:42:53;100935.81;;;23.35;55.05
28701;BME280;15877;52.344;16.790;2022-07-06T06:45:26;100929.66;;;23.34;54.92
28701;BME280;15877;52.344;16.790;2022-07-06T06:47:58;100932.70;;;23.32;55.17
28701;BME280;15877;52.344;16.790;2022-07-06T06:50:31;100937.38;;;23.29;54.57
28701;BME280;15877;52.344;16.790;2022-07-06T06:53:03;100933.77;;;23.23;55.12
28701;BME280;15877;52.344;16.790;2022-07-06T06:55:35;100936.83;;;23.20;54.98
28701;BME280;15877;52.344;16.790;2022-07-06T06:58:07;100934.84;;;23.11;55.57
28701;BME280;15877;52.344;16.790;2022-07-06T07:00:39;100938.05;;;23.20;55.55
28701;BME280;15877;52.344;16.790;2022-07-06T07:03:11;100936.30;;;23.22;55.31
28701;BME280;15877;52.344;16.790;2022-07-06T07:05:43;100936.09;;;23.17;55.46
28701;BME280;15877;52.344;16.790;2022-07-06T07:08:16;100932.13;;;23.20;55.22
28701;BME280;15877;52.344;16.790;2022-07-06T07:10:49;100931.57;;;23.24;54.59
28701;BME280;15877;52.344;16.790;2022-07-06T07:13:21;100915.20;;;23.09;55.32
28701;BME280;15877;52.344;16.790;2022-07-06T07:15:54;100919.45;;;23.04;55.63
28701;BME280;15877;52.344;16.790;2022-07-06T07:18:26;100926.23;;;23.04;55.09
28701;BME280;15877;52.344;16.790;2022-07-06T07:20:59;100928.82;;;23.08;55.42
28701;BME280;15877;52.344;16.790;2022-07-06T07:23:31;100940.16;;;22.96;56.62
28701;BME280;15877;52.344;16.790;2022-07-06T07:26:04;100960.95;;;22.73;57.11
28701;BME280;15877;52.344;16.790;2022-07-06T07:28:36;100970.00;;;22.24;55.49
28701;BME280;15877;52.344;16.790;2022-07-06T07:31:09;100969.72;;;21.34;59.07
28701;BME280;15877;52.344;16.790;2022-07-06T07:33:41;100944.84;;;20.96;60.78
28701;BME280;15877;52.344;16.790;2022-07-06T07:36:13;100935.97;;;20.61;59.70
28701;BME280;15877;52.344;16.790;2022-07-06T07:38:45;100971.52;;;20.48;61.26
28701;BME280;15877;52.344;16.790;2022-07-06T07:41:17;100961.96;;;20.26;61.59
28701;BME280;15877;52.344;16.790;2022-07-06T07:43:51;101003.60;;;20.32;60.44
28701;BME280;15877;52.344;16.790;2022-07-06T07:46:23;101007.81;;;20.19;61.54
28701;BME280;15877;52.344;16.790;2022-07-06T07:48:56;101001.21;;;20.28;61.30
28701;BME280;15877;52.344;16.790;2022-07-06T07:51:28;101002.27;;;20.16;63.53
28701;BME280;15877;52.344;16.790;2022-07-06T07:54:00;100987.55;;;20.00;65.47
28701;BME280;15877;52.344;16.790;2022-07-06T07:56:32;101003.33;;;20.13;65.64
28701;BME280;15877;52.344;16.790;2022-07-06T07:59:05;101011.08;;;20.13;66.42
28701;BME280;15877;52.344;16.790;2022-07-06T08:01:38;101020.20;;;20.10;67.40
28701;BME280;15877;52.344;16.790;2022-07-06T08:04:10;101017.59;;;20.01;68.48
28701;BME280;15877;52.344;16.790;2022-07-06T08:06:42;101019.58;;;19.95;69.36
28701;BME280;15877;52.344;16.790;2022-07-06T08:09:14;101025.56;;;19.92;69.89
28701;BME280;15877;52.344;16.790;2022-07-06T08:11:47;101031.25;;;19.84;70.20
28701;BME280;15877;52.344;16.790;2022-07-06T08:14:20;101034.61;;;19.88;70.74
28701;BME280;15877;52.344;16.790;2022-07-06T08:16:53;101034.60;;;19.88;71.28
28701;BME280;15877;52.344;16.790;2022-07-06T08:19:25;101027.23;;;19.69;71.86
28701;BME280;15877;52.344;16.790;2022-07-06T08:21:57;101037.98;;;19.76;71.76
28701;BME280;15877;52.344;16.790;2022-07-06T08:24:30;101042.91;;;19.74;72.08
28701;BME280;15877;52.344;16.790;2022-07-06T08:27:02;101043.81;;;19.69;71.47
28701;BME280;15877;52.344;16.790;2022-07-06T08:29:35;101046.73;;;19.67;71.63
28701;BME280;15877;52.344;16.790;2022-07-06T08:32:07;101045.38;;;19.64;71.55
28701;BME280;15877;52.344;16.790;2022-07-06T08:34:52;101036.71;;;19.74;71.95
28701;BME280;15877;52.344;16.790;2022-07-06T08:37:25;101034.20;;;19.88;72.27
28701;BME280;15877;52.344;16.790;2022-07-06T08:39:57;101022.86;;;19.97;71.36
28701;BME280;15877;52.344;16.790;2022-07-06T08:42:32;101031.02;;;20.06;71.59
28701;BME280;15877;52.344;16.790;2022-07-06T08:45:09;101036.03;;;20.17;72.41
28701;BME280;15877;52.344;16.790;2022-07-06T08:47:40;101039.11;;;20.36;71.46
28701;BME280;15877;52.344;16.790;2022-07-06T08:50:13;101039.06;;;20.51;70.38
28701;BME280;15877;52.344;16.790;2022-07-06T08:52:47;101039.89;;;20.59;69.97
28701;BME280;15877;52.344;16.790;2022-07-06T08:55:19;101036.23;;;20.69;69.24
28701;BME280;15877;52.344;16.790;2022-07-06T08:57:52;101041.15;;;20.71;66.85
28701;BME280;15877;52.344;16.790;2022-07-06T09:00:26;101042.23;;;20.67;66.06
28701;BME280;15877;52.344;16.790;2022-07-06T09:02:58;101046.41;;;20.59;65.59
28701;BME280;15877;52.344;16.790;2022-07-06T09:05:30;101044.11;;;20.64;65.24
28701;BME280;15877;52.344;16.790;2022-07-06T09:08:05;101040.50;;;20.71;64.48
28701;BME280;15877;52.344;16.790;2022-07-06T09:10:37;101024.98;;;20.66;64.52
28701;BME280;15877;52.344;16.790;2022-07-06T09:13:10;101047.58;;;20.64;64.89
28701;BME280;15877;52.344;16.790;2022-07-06T09:15:43;101047.55;;;20.75;63.76
28701;BME280;15877;52.344;16.790;2022-07-06T09:18:15;101039.79;;;20.85;63.32
28701;BME280;15877;52.344;16.790;2022-07-06T09:20:47;101045.42;;;20.79;62.86
28701;BME280;15877;52.344;16.790;2022-07-06T09:23:20;101044.89;;;20.92;63.31
28701;BME280;15877;52.344;16.790;2022-07-06T09:25:56;101049.55;;;21.17;61.63
28701;BME280;15877;52.344;16.790;2022-07-06T09:28:41;101042.89;;;21.07;61.18
28701;BME280;15877;52.344;16.790;2022-07-06T09:31:14;101041.95;;;21.18;61.71
28701;BME280;15877;52.344;16.790;2022-07-06T09:33:57;101041.47;;;21.25;60.57
28701;BME280;15877;52.344;16.790;2022-07-06T09:36:44;101036.46;;;21.31;61.51
28701;BME280;15877;52.344;16.790;2022-07-06T09:39:18;101035.69;;;21.41;60.84
28701;BME280;15877;52.344;16.790;2022-07-06T09:41:52;101031.86;;;21.39;60.73
28701;BME280;15877;52.344;16.790;2022-07-06T09:44:26;101030.00;;;21.39;61.12
28701;BME280;15877;52.344;16.790;2022-07-06T09:47:01;101027.66;;;21.51;60.24
28701;BME280;15877;52.344;16.790;2022-07-06T09:49:34;101023.47;;;21.56;60.19
28701;BME280;15877;52.344;16.790;2022-07-06T09:52:08;101017.41;;;21.56;59.09
28701;BME280;15877;52.344;16.790;2022-07-06T09:54:41;101023.11;;;21.57;58.56
28701;BME280;15877;52.344;16.790;2022-07-06T09:57:14;101012.30;;;21.46;58.03
28701;BME280;15877;52.344;16.790;2022-07-06T09:59:51;101017.63;;;21.57;58.15
28701;BME280;15877;52.344;16.790;2022-07-06T10:02:25;101016.28;;;21.56;57.60
28701;BME280;15877;52.344;16.790;2022-07-06T10:04:59;101012.02;;;21.67;58.67
28701;BME280;15877;52.344;16.790;2022-07-06T10:07:32;101012.91;;;21.77;58.19
28701;BME280;15877;52.344;16.790;2022-07-06T10:10:06;101009.96;;;21.87;57.32
28701;BME280;15877;52.344;16.790;2022-07-06T10:12:41;101012.28;;;21.90;57.85
28701;BME280;15877;52.344;16.790;2022-07-06T10:15:14;101016.51;;;21.98;57.33
28701;BME280;15877;52.344;16.790;2022-07-06T10:17:47;101015.21;;;22.19;56.93
28701;BME280;15877;52.344;16.790;2022-07-06T10:20:21;101014.54;;;22.29;56.16
28701;BME280;15877;52.344;16.790;2022-07-06T10:22:54;101018.13;;;22.43;55.33
28701;BME280;15877;52.344;16.790;2022-07-06T10:25:26;101020.72;;;22.62;55.08
28701;BME280;15877;52.344;16.790;2022-07-06T10:27:59;101024.05;;;22.83;54.14
28701;BME280;15877;52.344;16.790;2022-07-06T10:30:33;101030.31;;;22.99;53.88
28701;BME280;15877;52.344;16.790;2022-07-06T10:33:06;101033.09;;;22.93;50.66
28701;BME280;15877;52.344;16.790;2022-07-06T10:35:41;101033.80;;;22.82;48.26
28701;BME280;15877;52.344;16.790;2022-07-06T10:38:13;101037.75;;;22.86;46.67
28701;BME280;15877;52.344;16.790;2022-07-06T10:40:45;101039.75;;;22.84;44.91
28701;BME280;15877;52.344;16.790;2022-07-06T10:43:38;101040.48;;;22.79;43.88
28701;BME280;15877;52.344;16.790;2022-07-06T10:46:15;101041.20;;;22.89;44.22
28701;BME280;15877;52.344;16.790;2022-07-06T10:48:48;101034.36;;;22.90;44.27
28701;BME280;15877;52.344;16.790;2022-07-06T10:51:26;101034.69;;;23.07;45.40
28701;BME280;15877;52.344;16.790;2022-07-06T10:53:59;101024.31;;;23.11;44.87
28701;BME280;15877;52.344;16.790;2022-07-06T10:56:35;101018.19;;;23.31;44.77
28701;BME280;15877;52.344;16.790;2022-07-06T10:59:13;101033.99;;;23.50;44.08
28701;BME280;15877;52.344;16.790;2022-07-06T11:02:14;101030.95;;;23.44;43.96
28701;BME280;15877;52.344;16.790;2022-07-06T11:04:48;101036.27;;;23.25;44.09
28701;BME280;15877;52.344;16.790;2022-07-06T11:07:21;101033.54;;;22.95;43.55
28701;BME280;15877;52.344;16.790;2022-07-06T11:09:57;101013.45;;;22.83;44.39
28701;BME280;15877;52.344;16.790;2022-07-06T11:12:29;101027.64;;;22.98;44.33
28701;BME280;15877;52.344;16.790;2022-07-06T11:15:02;101026.71;;;22.97;44.45
28701;BME280;15877;52.344;16.790;2022-07-06T11:17:34;101024.17;;;23.11;44.79
28701;BME280;15877;52.344;16.790;2022-07-06T11:20:13;101022.92;;;23.29;44.44
28701;BME280;15877;52.344;16.790;2022-07-06T11:22:45;101016.63;;;23.11;43.84
28701;BME280;15877;52.344;16.790;2022-07-06T11:25:17;101026.35;;;23.07;43.89
28701;BME280;15877;52.344;16.790;2022-07-06T11:27:50;101025.23;;;23.01;42.52
28701;BME280;15877;52.344;16.790;2022-07-06T11:30:23;101021.79;;;23.00;42.87
28701;BME280;15877;52.344;16.790;2022-07-06T11:33:04;101026.30;;;22.92;42.22
28701;BME280;15877;52.344;16.790;2022-07-06T11:35:36;101004.77;;;23.21;41.88
28701;BME280;15877;52.344;16.790;2022-07-06T11:38:27;101007.23;;;23.43;42.64
28701;BME280;15877;52.344;16.790;2022-07-06T11:41:00;101011.07;;;23.45;42.33
28701;BME280;15877;52.344;16.790;2022-07-06T11:43:32;101010.39;;;23.79;43.35
28701;BME280;15877;52.344;16.790;2022-07-06T11:46:04;101015.09;;;23.90;42.71
28701;BME280;15877;52.344;16.790;2022-07-06T11:48:36;101013.74;;;23.64;42.59
28701;BME280;15877;52.344;16.790;2022-07-06T11:51:09;101003.00;;;23.69;42.33
28701;BME280;15877;52.344;16.790;2022-07-06T11:53:45;101011.97;;;23.88;41.37
28701;BME280;15877;52.344;16.790;2022-07-06T11:56:25;100990.98;;;24.08;42.43
28701;BME280;15877;52.344;16.790;2022-07-06T11:58:59;100994.38;;;24.10;42.82
28701;BME280;15877;52.344;16.790;2022-07-06T12:01:32;100992.38;;;24.12;42.69
28701;BME280;15877;52.344;16.790;2022-07-06T12:04:05;101003.05;;;24.20;42.08
28701;BME280;15877;52.344;16.790;2022-07-06T12:06:38;100999.51;;;23.87;41.83
28701;BME280;15877;52.344;16.790;2022-07-06T12:09:13;101003.04;;;23.68;41.74
28701;BME280;15877;52.344;16.790;2022-07-06T12:11:47;100981.91;;;23.45;41.55
28701;BME280;15877;52.344;16.790;2022-07-06T12:14:19;101000.88;;;23.30;41.92
28701;BME280;15877;52.344;16.790;2022-07-06T12:16:52;101011.43;;;23.24;41.70
28701;BME280;15877;52.344;16.790;2022-07-06T12:19:25;101017.84;;;23.15;40.44
28701;BME280;15877;52.344;16.790;2022-07-06T12:21:57;101012.48;;;23.07;39.44
28701;BME280;15877;52.344;16.790;2022-07-06T12:24:31;101016.31;;;23.02;38.76
28701;BME280;15877;52.344;16.790;2022-07-06T12:27:14;101007.90;;;23.06;39.21
28701;BME280;15877;52.344;16.790;2022-07-06T12:29:47;100986.50;;;23.00;39.44
28701;BME280;15877;52.344;16.790;2022-07-06T12:32:21;101012.84;;;23.14;40.60
28701;BME280;15877;52.344;16.790;2022-07-06T12:35:04;101005.60;;;23.51;40.40
28701;BME280;15877;52.344;16.790;2022-07-06T12:37:37;101018.48;;;23.32;40.24
28701;BME280;15877;52.344;16.790;2022-07-06T12:40:15;101017.77;;;23.24;40.26
28701;BME280;15877;52.344;16.790;2022-07-06T12:42:48;101010.69;;;23.12;40.85
28701;BME280;15877;52.344;16.790;2022-07-06T12:45:25;101008.94;;;23.15;41.08
28701;BME280;15877;52.344;16.790;2022-07-06T12:48:02;101007.05;;;23.12;41.11
28701;BME280;15877;52.344;16.790;2022-07-06T12:50:36;100996.14;;;23.11;40.68
28701;BME280;15877;52.344;16.790;2022-07-06T12:53:25;101004.69;;;23.01;41.03
28701;BME280;15877;52.344;16.790;2022-07-06T12:56:11;101010.14;;;23.20;40.29
28701;BME280;15877;52.344;16.790;2022-07-06T12:58:57;101011.44;;;23.24;40.65
28701;BME280;15877;52.344;16.790;2022-07-06T13:01:29;101014.90;;;23.29;41.07
28701;BME280;15877;52.344;16.790;2022-07-06T13:04:06;101009.41;;;23.40;40.77
28701;BME280;15877;52.344;16.790;2022-07-06T13:06:39;101002.66;;;23.45;40.78
28701;BME280;15877;52.344;16.790;2022-07-06T13:09:12;101000.16;;;23.41;40.47
28701;BME280;15877;52.344;16.790;2022-07-06T13:11:46;100991.36;;;23.35;40.25
28701;BME280;15877;52.344;16.790;2022-07-06T13:14:19;100995.46;;;23.33;40.53